Time;durP1;ratioP1;P1;durP2;ratioP2;P2;SDS_P1;SDS_P2;PMS_P1;PMS_P2;Temp;Humidity;BMP_temperature;BMP_pressure;BME280_temperature;BME280_humidity;BME280_pressure;Samples;Min_cycle;Max_cycle;Signal;HPM_P1;HPM_P2
2022/01/25 00:24:47;;;;;;;55.55;45.85;;;4.40;99.90;;;;;;5010095;28;20061;-76
2022/01/25 00:30:11;;;;;;;55.17;42.78;;;4.30;99.90;;;;;;4982054;28;20061;-75
2022/01/25 00:32:36;;;;;;;56.25;42.90;;;4.30;99.90;;;;;;5008697;28;20047;-76
2022/01/25 00:35:02;;;;;;;56.03;44.60;;;4.30;99.90;;;;;;5014663;28;20097;-76
2022/01/25 00:37:28;;;;;;;55.67;42.85;;;4.30;99.90;;;;;;4982808;28;20041;-75
2022/01/25 00:39:53;;;;;;;57.35;45.33;;;4.30;99.90;;;;;;5010167;28;20721;-75
2022/01/25 00:42:19;;;;;;;55.38;43.80;;;4.20;99.90;;;;;;5000833;28;20408;-76
2022/01/25 00:44:48;;;;;;;52.67;41.60;;;4.20;99.90;;;;;;5011955;28;20049;-75
2022/01/25 00:47:15;;;;;;;55.00;43.22;;;4.20;99.90;;;;;;4996753;28;20042;-75
2022/01/25 00:49:43;;;;;;;56.15;43.63;;;4.20;99.90;;;;;;4996918;28;20046;-75
2022/01/25 00:53:53;;;;;;;53.20;42.15;;;4.20;99.90;;;;;;4982863;28;20496;-75
2022/01/25 00:55:07;;;;;;;54.20;42.67;;;4.30;99.90;;;;;;4994980;28;20629;-76
2022/01/25 00:57:33;;;;;;;58.58;45.70;;;4.20;99.90;;;;;;4995030;28;20058;-76
2022/01/25 00:59:59;;;;;;;55.58;42.95;;;4.20;99.90;;;;;;4978227;28;20541;-76
2022/01/25 01:02:25;;;;;;;57.38;44.55;;;4.20;99.90;;;;;;4980472;28;20034;-75
2022/01/25 01:04:50;;;;;;;58.25;44.88;;;4.20;99.90;;;;;;5014382;28;20401;-76
2022/01/25 01:07:17;;;;;;;55.40;44.08;;;4.20;99.90;;;;;;4983716;28;20069;-76
2022/01/25 01:09:47;;;;;;;55.67;42.53;;;4.20;99.90;;;;;;4976633;28;20085;-76
2022/01/25 01:12:27;;;;;;;53.55;43.65;;;4.20;99.90;;;;;;4995066;28;20505;-76
2022/01/25 01:30:38;;;;;;;53.67;42.38;;;4.20;99.90;;;;;;5012014;28;20136;-75
2022/01/25 01:38:19;;;;;;;57.50;42.65;;;4.10;99.90;;;;;;5014974;28;20049;-76
2022/01/25 01:45:49;;;;;;;53.90;42.20;;;4.20;99.90;;;;;;4977457;28;20050;-75
2022/01/25 01:48:27;;;;;;;57.28;45.13;;;4.20;99.90;;;;;;5013152;28;20096;-76
2022/01/25 01:50:54;;;;;;;59.30;44.45;;;4.20;99.90;;;;;;4998354;28;20034;-76
2022/01/25 01:53:20;;;;;;;53.75;41.75;;;4.10;99.90;;;;;;4998586;28;20039;-76
2022/01/25 01:55:46;;;;;;;52.20;41.40;;;4.10;99.90;;;;;;4977795;28;20566;-76
2022/01/25 01:58:14;;;;;;;58.22;44.25;;;4.10;99.90;;;;;;4982369;28;20747;-76
2022/01/25 02:00:42;;;;;;;57.80;44.75;;;4.20;99.90;;;;;;4996649;28;20065;-76
2022/01/25 02:03:08;;;;;;;55.90;43.03;;;4.10;99.90;;;;;;4975349;28;20042;-76
2022/01/25 02:05:35;;;;;;;59.15;44.67;;;4.10;99.90;;;;;;4995210;28;20040;-76
2022/01/25 02:08:01;;;;;;;55.88;42.45;;;4.20;99.90;;;;;;4981703;28;20054;-76
2022/01/25 02:10:27;;;;;;;56.30;43.30;;;4.10;99.90;;;;;;5010307;28;20488;-76
2022/01/25 02:12:53;;;;;;;56.90;42.55;;;4.30;99.90;;;;;;4977262;28;20475;-76
2022/01/25 02:15:21;;;;;;;55.88;43.45;;;4.10;99.90;;;;;;4998434;28;20121;-76
2022/01/25 02:23:21;;;;;;;61.88;44.00;;;4.10;99.90;;;;;;5013276;28;20073;-76
2022/01/25 02:25:53;;;;;;;55.70;42.92;;;4.10;99.90;;;;;;5011730;28;20057;-76
2022/01/25 02:28:20;;;;;;;57.55;42.53;;;4.10;99.90;;;;;;4982180;28;20085;-76
2022/01/25 02:30:46;;;;;;;55.95;43.70;;;4.10;99.90;;;;;;4994956;28;20482;-76
2022/01/25 02:33:12;;;;;;;59.33;43.50;;;4.10;99.90;;;;;;5009302;28;20045;-76
2022/01/25 02:35:40;;;;;;;57.30;42.72;;;4.10;99.90;;;;;;4993054;28;20045;-75
2022/01/25 02:38:06;;;;;;;53.83;41.45;;;4.10;99.90;;;;;;4980338;28;20074;-77
2022/01/25 02:40:33;;;;;;;58.67;43.92;;;4.10;99.90;;;;;;4997742;28;20091;-76
2022/01/25 02:42:58;;;;;;;55.70;43.40;;;4.10;99.90;;;;;;4977270;28;20053;-76
2022/01/25 02:45:31;;;;;;;58.80;42.90;;;4.10;99.90;;;;;;4994211;28;20719;-75
2022/01/25 02:50:41;;;;;;;54.28;40.97;;;4.10;99.90;;;;;;4991365;28;20046;-75
2022/01/25 02:53:08;;;;;;;56.17;43.13;;;4.10;99.90;;;;;;4998583;28;20404;-76
2022/01/25 02:55:34;;;;;;;57.55;42.58;;;4.10;99.90;;;;;;4996105;28;20121;-75
2022/01/25 02:58:00;;;;;;;58.35;42.65;;;4.10;99.90;;;;;;4985133;28;20120;-76
2022/01/25 03:00:25;;;;;;;56.13;42.97;;;4.10;99.90;;;;;;4995284;28;20116;-76
2022/01/25 03:02:51;;;;;;;58.40;44.30;;;4.00;99.90;;;;;;4995643;28;20042;-76
2022/01/25 03:05:17;;;;;;;57.42;42.08;;;4.10;99.90;;;;;;4987865;28;20201;-76
2022/01/25 03:07:44;;;;;;;56.78;41.80;;;4.00;99.90;;;;;;4974746;28;20062;-76
2022/01/25 03:10:11;;;;;;;56.78;42.35;;;4.00;99.90;;;;;;4994119;28;20042;-76
2022/01/25 03:12:49;;;;;;;58.47;41.75;;;4.00;99.90;;;;;;4996798;28;20042;-76
2022/01/25 03:17:52;;;;;;;55.05;42.97;;;4.10;99.90;;;;;;4976696;28;20057;-76
2022/01/25 03:20:34;;;;;;;53.25;40.40;;;4.00;99.90;;;;;;5010646;28;20464;-76
2022/01/25 03:23:05;;;;;;;58.35;43.53;;;4.30;99.90;;;;;;4995310;28;20050;-76
2022/01/25 03:25:31;;;;;;;53.28;40.83;;;4.00;99.90;;;;;;4996487;28;20038;-75
2022/01/25 03:27:57;;;;;;;55.75;42.35;;;4.10;99.90;;;;;;4998785;28;20546;-76
2022/01/25 03:30:24;;;;;;;55.58;42.83;;;4.00;99.90;;;;;;5000262;28;20121;-76
2022/01/25 03:32:50;;;;;;;57.75;41.95;;;4.00;99.90;;;;;;4999197;28;20400;-76
2022/01/25 03:35:16;;;;;;;58.38;42.90;;;4.10;99.90;;;;;;5002321;28;20042;-76
2022/01/25 03:37:42;;;;;;;58.83;42.88;;;4.00;99.90;;;;;;5000913;28;20451;-76
2022/01/25 03:40:09;;;;;;;58.80;44.47;;;4.00;99.90;;;;;;5015540;28;20034;-75
2022/01/25 03:42:37;;;;;;;58.42;44.63;;;4.00;99.90;;;;;;4983701;28;20041;-76
2022/01/25 03:45:08;;;;;;;56.10;43.20;;;4.00;99.90;;;;;;4980475;28;20407;-76
2022/01/25 03:47:58;;;;;;;55.75;42.85;;;4.00;99.90;;;;;;5002372;28;20034;-76
2022/01/25 03:50:25;;;;;;;56.65;42.13;;;4.10;99.90;;;;;;4993962;28;20452;-76
2022/01/25 03:52:50;;;;;;;57.42;42.92;;;4.00;99.90;;;;;;4998838;28;20038;-75
2022/01/25 03:55:16;;;;;;;58.30;44.22;;;4.00;99.90;;;;;;4988970;28;20085;-76
2022/01/25 03:57:42;;;;;;;56.97;44.20;;;4.00;99.90;;;;;;4983641;28;20109;-75
2022/01/25 04:00:10;;;;;;;58.03;41.28;;;4.00;99.90;;;;;;5001821;28;20049;-76
2022/01/25 04:02:37;;;;;;;63.63;43.80;;;4.10;99.90;;;;;;4982877;28;20115;-76
2022/01/25 04:05:05;;;;;;;55.80;43.25;;;4.00;99.90;;;;;;5001176;28;20041;-76
2022/01/25 04:07:44;;;;;;;57.38;43.47;;;4.10;99.90;;;;;;4980726;28;20064;-75
2022/01/25 04:10:09;;;;;;;59.75;43.25;;;4.00;99.90;;;;;;5012534;28;20049;-76
2022/01/25 04:12:35;;;;;;;59.30;46.05;;;4.10;99.90;;;;;;5013457;28;20595;-76
2022/01/25 04:15:02;;;;;;;60.25;44.88;;;4.00;99.90;;;;;;5012059;28;20093;-76
2022/01/25 04:17:28;;;;;;;56.70;42.35;;;4.00;99.90;;;;;;4990482;28;20156;-76
2022/01/25 04:20:14;;;;;;;60.80;43.80;;;4.00;99.90;;;;;;5001703;28;20492;-76
2022/01/25 04:25:24;;;;;;;55.47;41.83;;;4.00;99.90;;;;;;4979700;28;20050;-76
2022/01/25 04:27:49;;;;;;;55.40;42.33;;;4.00;99.90;;;;;;5017670;28;20043;-75
2022/01/25 04:30:15;;;;;;;59.72;44.67;;;4.00;99.90;;;;;;4998281;28;20041;-76
2022/01/25 04:32:46;;;;;;;59.72;43.33;;;4.00;99.90;;;;;;4981562;28;20053;-75
2022/01/25 04:59:22;;;;;;;58.92;42.20;;;4.00;99.90;;;;;;4984550;28;20129;-77
2022/01/25 05:01:50;;;;;;;55.33;41.10;;;4.00;99.90;;;;;;5015052;28;20042;-78
2022/01/25 05:04:23;;;;;;;60.70;42.63;;;4.00;99.90;;;;;;5000031;28;20073;-80
2022/01/25 05:06:52;;;;;;;60.33;42.97;;;4.00;99.90;;;;;;5015672;28;20042;-80
2022/01/25 05:09:20;;;;;;;58.55;44.70;;;4.00;99.90;;;;;;5019856;28;20072;-79
2022/01/25 05:11:48;;;;;;;60.17;43.40;;;4.00;99.90;;;;;;4985680;28;20780;-79
2022/01/25 05:14:24;;;;;;;57.83;43.63;;;4.00;99.90;;;;;;5017416;28;20038;-79
2022/01/25 05:17:02;;;;;;;56.05;41.15;;;4.00;99.90;;;;;;4982572;28;20476;-79
2022/01/25 05:22:17;;;;;;;60.50;45.05;;;4.00;99.90;;;;;;4998903;28;20571;-80
2022/01/25 05:24:44;;;;;;;62.45;44.83;;;4.00;99.90;;;;;;4986574;28;20777;-80
2022/01/25 05:27:12;;;;;;;63.05;44.03;;;4.00;99.90;;;;;;5018655;28;20046;-79
2022/01/25 05:29:38;;;;;;;60.08;44.35;;;4.00;99.90;;;;;;4980580;28;20265;-79
2022/01/25 05:32:05;;;;;;;60.90;43.78;;;4.00;99.90;;;;;;5014436;28;20049;-79
2022/01/25 05:34:32;;;;;;;57.75;42.92;;;4.00;99.90;;;;;;5001023;28;20485;-79
2022/01/25 05:36:57;;;;;;;60.30;42.97;;;4.00;99.90;;;;;;5003714;28;20042;-80
2022/01/25 05:39:31;;;;;;;59.60;43.42;;;4.00;99.90;;;;;;5017293;28;20044;-79
2022/01/25 05:42:15;;;;;;;59.53;43.22;;;4.00;99.90;;;;;;4985211;28;20046;-79
2022/01/25 05:44:57;;;;;;;58.65;43.30;;;4.00;99.90;;;;;;4984819;28;20050;-79
2022/01/25 05:47:29;;;;;;;61.92;45.15;;;4.00;99.90;;;;;;4978443;28;20417;-79
2022/01/25 05:49:56;;;;;;;62.20;44.45;;;4.00;99.90;;;;;;5001003;28;20049;-79
2022/01/25 05:52:22;;;;;;;60.58;45.10;;;4.00;99.90;;;;;;4999682;28;20038;-79
2022/01/25 05:54:48;;;;;;;61.35;45.05;;;4.00;99.90;;;;;;4978187;28;20556;-79
2022/01/25 05:57:14;;;;;;;60.28;44.63;;;4.00;99.90;;;;;;5007663;28;20613;-79
2022/01/25 05:59:39;;;;;;;58.45;42.65;;;4.00;99.90;;;;;;4977998;28;20046;-79
2022/01/25 06:02:05;;;;;;;59.38;45.42;;;4.00;99.90;;;;;;5012507;28;20096;-79
2022/01/25 06:04:31;;;;;;;58.67;45.58;;;4.00;99.90;;;;;;4980056;28;20046;-80
2022/01/25 06:06:57;;;;;;;58.30;43.80;;;3.90;99.90;;;;;;4996086;28;20053;-80
2022/01/25 06:09:24;;;;;;;65.70;45.58;;;4.00;99.90;;;;;;5012872;28;20575;-79
2022/01/25 06:11:52;;;;;;;62.55;44.97;;;3.90;99.90;;;;;;4996715;28;20042;-79
2022/01/25 06:14:18;;;;;;;61.15;46.00;;;4.00;99.90;;;;;;4994722;28;20070;-79
2022/01/25 06:16:43;;;;;;;60.60;44.20;;;3.90;99.90;;;;;;4978208;28;20034;-79
2022/01/25 06:19:09;;;;;;;58.83;43.95;;;4.00;99.90;;;;;;4999757;28;20093;-80
2022/01/25 06:21:34;;;;;;;66.15;46.17;;;3.90;99.90;;;;;;4995117;28;20121;-79
2022/01/25 06:24:00;;;;;;;64.35;45.90;;;3.90;99.90;;;;;;5005186;28;20044;-79
2022/01/25 06:26:26;;;;;;;62.97;45.88;;;3.90;99.90;;;;;;4994271;28;20038;-79
2022/01/25 06:28:51;;;;;;;63.70;44.17;;;3.90;99.90;;;;;;4992344;28;20559;-79
2022/01/25 06:31:18;;;;;;;63.22;45.30;;;3.90;99.90;;;;;;4998349;28;20038;-79
2022/01/25 06:33:45;;;;;;;61.15;42.45;;;4.00;99.90;;;;;;5009444;28;20081;-79
2022/01/25 06:36:11;;;;;;;63.72;43.63;;;3.90;99.90;;;;;;5002763;28;20025;-79
2022/01/25 06:38:37;;;;;;;62.33;43.28;;;3.90;99.90;;;;;;5014327;28;20495;-78
2022/01/25 06:41:03;;;;;;;61.63;44.20;;;4.00;99.90;;;;;;4982603;28;20041;-79
2022/01/25 06:43:29;;;;;;;61.15;43.92;;;3.90;99.90;;;;;;4990560;28;20039;-80
2022/01/25 06:45:59;;;;;;;57.20;42.50;;;4.00;99.90;;;;;;4994152;28;20037;-80
2022/01/25 06:48:25;;;;;;;60.25;44.20;;;4.00;99.90;;;;;;4992018;28;20057;-79
2022/01/25 06:50:51;;;;;;;60.65;44.10;;;4.00;99.90;;;;;;4997167;28;20042;-79
2022/01/25 06:53:19;;;;;;;67.05;45.90;;;3.90;99.90;;;;;;4985528;28;20046;-79
2022/01/25 06:55:44;;;;;;;62.50;44.92;;;4.00;99.90;;;;;;4993715;28;20120;-79
2022/01/25 06:58:10;;;;;;;61.35;43.17;;;4.00;99.90;;;;;;5008207;28;20129;-79
2022/01/25 07:00:36;;;;;;;61.00;44.72;;;4.00;99.90;;;;;;4979224;28;20046;-78
2022/01/25 07:03:03;;;;;;;60.67;44.13;;;3.90;99.90;;;;;;5008770;28;20050;-80
2022/01/25 07:05:30;;;;;;;59.15;43.30;;;3.90;99.90;;;;;;4991659;28;20062;-79
2022/01/25 07:07:55;;;;;;;65.38;45.58;;;3.90;99.90;;;;;;4995111;28;20051;-79
2022/01/25 07:10:22;;;;;;;59.83;44.00;;;3.90;99.90;;;;;;4987440;28;20050;-79
2022/01/25 07:12:48;;;;;;;59.75;41.10;;;3.90;99.90;;;;;;4972607;28;20058;-79
2022/01/25 07:15:14;;;;;;;63.35;43.55;;;3.70;99.90;;;;;;4989771;28;20791;-78
2022/01/25 07:17:41;;;;;;;61.13;44.25;;;3.90;99.90;;;;;;4990892;28;20041;-79
2022/01/25 07:20:08;;;;;;;61.55;42.55;;;4.00;99.90;;;;;;5009574;28;20499;-79
2022/01/25 07:22:35;;;;;;;62.15;42.33;;;4.00;99.90;;;;;;4991157;28;20034;-79
2022/01/25 07:25:03;;;;;;;61.20;43.53;;;4.00;99.90;;;;;;4995783;28;20125;-79
2022/01/25 07:27:29;;;;;;;64.07;45.85;;;3.90;99.90;;;;;;4988419;28;20696;-79
2022/01/25 07:29:55;;;;;;;60.15;42.63;;;4.00;99.90;;;;;;5003594;28;20049;-79
2022/01/25 07:32:21;;;;;;;62.92;45.03;;;3.90;99.90;;;;;;4992880;28;20043;-79
2022/01/25 07:34:47;;;;;;;60.78;42.35;;;3.90;99.90;;;;;;5007959;28;20035;-77
2022/01/25 07:37:13;;;;;;;62.53;43.35;;;3.90;99.90;;;;;;4975912;28;20045;-76
2022/01/25 07:39:39;;;;;;;59.83;43.25;;;3.90;99.90;;;;;;4974638;28;20034;-76
2022/01/25 07:42:05;;;;;;;62.63;42.63;;;3.90;99.90;;;;;;4993828;28;20032;-76
2022/01/25 07:44:35;;;;;;;61.95;42.92;;;3.90;99.90;;;;;;4995090;28;20035;-76
2022/01/25 07:47:01;;;;;;;63.33;43.40;;;3.90;99.90;;;;;;5008071;28;20093;-76
2022/01/25 07:49:28;;;;;;;60.83;43.30;;;3.90;99.90;;;;;;5008108;28;20125;-76
2022/01/25 07:51:54;;;;;;;60.42;43.35;;;3.90;99.90;;;;;;4989845;28;20115;-76
2022/01/25 07:54:20;;;;;;;61.65;44.30;;;3.90;99.90;;;;;;4988481;28;20066;-76
2022/01/25 07:56:46;;;;;;;70.47;48.00;;;3.90;99.90;;;;;;4996619;28;20037;-76
2022/01/25 07:59:13;;;;;;;78.00;51.33;;;3.90;99.90;;;;;;4990906;28;20050;-76
2022/01/25 08:01:39;;;;;;;77.93;51.40;;;3.90;99.90;;;;;;4960197;28;20078;-76
2022/01/25 08:04:05;;;;;;;70.88;49.55;;;4.00;99.90;;;;;;4982138;28;20046;-75
2022/01/25 08:06:31;;;;;;;78.80;50.85;;;3.90;99.90;;;;;;5002616;28;20125;-76
2022/01/25 08:08:58;;;;;;;73.22;49.53;;;3.90;99.90;;;;;;4985596;28;20034;-76
2022/01/25 08:11:24;;;;;;;74.45;50.72;;;3.90;99.90;;;;;;4996230;28;20053;-76
2022/01/25 08:13:51;;;;;;;68.70;46.10;;;3.90;99.90;;;;;;4998559;28;20128;-76
2022/01/25 08:16:17;;;;;;;69.05;45.42;;;3.90;99.90;;;;;;5008116;28;20046;-75
2022/01/25 08:18:43;;;;;;;60.80;41.50;;;3.90;99.90;;;;;;4981729;28;20038;-76
2022/01/25 08:21:09;;;;;;;64.97;43.40;;;4.00;99.90;;;;;;5012787;28;20047;-76
2022/01/25 08:23:35;;;;;;;64.03;44.88;;;4.00;99.90;;;;;;4990021;28;20050;-76
2022/01/25 08:26:03;;;;;;;62.75;41.83;;;4.00;99.90;;;;;;4993820;28;20084;-76
2022/01/25 08:28:30;;;;;;;64.35;43.22;;;4.00;99.90;;;;;;4992567;28;20041;-76
2022/01/25 08:30:56;;;;;;;65.70;43.92;;;3.90;99.90;;;;;;4990874;28;20051;-76
2022/01/25 08:33:22;;;;;;;68.05;44.70;;;4.00;99.90;;;;;;4988750;28;20501;-76
2022/01/25 08:35:48;;;;;;;58.63;42.92;;;3.90;99.90;;;;;;4991671;28;20046;-76
2022/01/25 08:38:13;;;;;;;66.85;45.47;;;3.90;99.90;;;;;;4995069;28;20039;-77
2022/01/25 08:40:39;;;;;;;64.82;45.10;;;4.00;99.90;;;;;;4975571;28;20401;-76
2022/01/25 08:43:05;;;;;;;61.65;43.92;;;4.00;99.90;;;;;;5011644;28;20103;-76
2022/01/25 08:45:31;;;;;;;58.35;41.50;;;4.00;99.90;;;;;;5007263;28;20057;-77
2022/01/25 08:47:57;;;;;;;62.05;44.50;;;3.90;99.90;;;;;;4996556;28;20628;-76
2022/01/25 08:50:24;;;;;;;64.53;44.70;;;4.00;99.90;;;;;;4976530;28;20038;-76
2022/01/25 08:52:49;;;;;;;63.05;43.17;;;3.90;99.90;;;;;;4992771;28;20125;-76
2022/01/25 08:55:15;;;;;;;62.05;43.05;;;4.00;99.90;;;;;;4979502;28;20133;-76
2022/01/25 08:57:41;;;;;;;64.57;43.80;;;4.00;99.90;;;;;;4992994;28;20034;-76
2022/01/25 09:00:10;;;;;;;68.32;42.78;;;4.00;99.90;;;;;;4990221;28;20034;-76
2022/01/25 09:02:36;;;;;;;70.05;44.13;;;4.00;99.90;;;;;;4994232;28;20569;-77
2022/01/25 09:05:03;;;;;;;59.72;43.58;;;4.00;99.90;;;;;;4995952;28;20042;-76
2022/01/25 09:07:29;;;;;;;61.38;44.33;;;3.90;99.90;;;;;;4970942;28;20076;-76
2022/01/25 09:09:55;;;;;;;62.97;42.80;;;3.90;99.90;;;;;;5004125;28;20092;-76
2022/01/25 09:12:21;;;;;;;63.17;44.47;;;4.00;99.90;;;;;;4976179;28;20054;-76
2022/01/25 09:14:47;;;;;;;62.05;43.10;;;3.90;99.90;;;;;;4976031;28;20045;-77
2022/01/25 09:17:13;;;;;;;64.45;42.83;;;4.00;99.90;;;;;;5008154;28;20489;-76
2022/01/25 09:19:39;;;;;;;61.25;43.40;;;3.90;99.90;;;;;;4989019;28;20041;-76
2022/01/25 09:22:06;;;;;;;61.42;42.78;;;4.00;99.90;;;;;;4994258;28;20540;-76
2022/01/25 09:24:32;;;;;;;59.58;42.25;;;3.90;99.90;;;;;;4974952;28;20049;-77
2022/01/25 09:26:58;;;;;;;64.82;44.28;;;4.00;99.90;;;;;;5011051;28;20038;-77
2022/01/25 09:29:24;;;;;;;64.07;43.97;;;4.00;99.90;;;;;;4975435;28;20413;-76
2022/01/25 09:31:50;;;;;;;67.82;43.80;;;4.00;99.90;;;;;;4994238;28;20049;-76
2022/01/25 09:34:16;;;;;;;66.15;44.45;;;4.00;99.90;;;;;;4991674;28;20049;-77
2022/01/25 09:36:42;;;;;;;62.67;43.33;;;4.00;99.90;;;;;;4983493;28;20054;-77
2022/01/25 09:39:08;;;;;;;63.80;41.88;;;4.00;99.90;;;;;;4995474;28;20084;-76
2022/01/25 09:41:34;;;;;;;63.17;43.03;;;4.00;99.90;;;;;;4994056;28;20117;-76
2022/01/25 09:44:00;;;;;;;65.53;45.03;;;4.00;99.90;;;;;;4974757;28;20053;-76
2022/01/25 09:46:25;;;;;;;67.82;44.45;;;4.00;99.90;;;;;;4999398;28;20046;-76
2022/01/25 09:48:52;;;;;;;66.78;44.35;;;4.00;99.90;;;;;;4992201;28;20038;-77
2022/01/25 09:51:19;;;;;;;67.60;44.25;;;4.10;99.90;;;;;;4998238;28;20358;-77
2022/01/25 09:53:45;;;;;;;64.28;43.47;;;4.10;99.90;;;;;;4979450;28;20054;-76
2022/01/25 09:56:11;;;;;;;65.15;45.47;;;4.00;99.90;;;;;;4995119;28;20041;-76
2022/01/25 09:58:36;;;;;;;64.15;45.05;;;4.10;99.90;;;;;;5003476;28;20385;-77
2022/01/25 10:01:05;;;;;;;68.65;44.53;;;4.00;99.90;;;;;;4992572;28;20049;-76
2022/01/25 10:03:38;;;;;;;67.97;45.35;;;4.10;99.90;;;;;;4999744;28;20076;-77
2022/01/25 10:06:15;;;;;;;62.88;42.65;;;4.00;99.90;;;;;;4992979;28;20141;-77
2022/01/25 10:08:41;;;;;;;64.75;43.97;;;4.10;99.90;;;;;;4989026;28;20046;-76
2022/01/25 10:11:15;;;;;;;69.10;45.42;;;4.20;99.90;;;;;;4994546;28;20390;-77
2022/01/25 10:13:43;;;;;;;64.85;43.67;;;4.10;99.90;;;;;;4971600;28;20042;-76
2022/01/25 10:16:11;;;;;;;68.32;45.42;;;4.10;99.90;;;;;;4996152;28;20035;-77
2022/01/25 10:18:48;;;;;;;66.80;44.42;;;4.20;99.90;;;;;;5002530;28;20047;-76
2022/01/25 10:21:22;;;;;;;70.30;44.08;;;4.20;99.90;;;;;;5006360;28;20030;-76
2022/01/25 10:24:12;;;;;;;68.20;45.72;;;4.20;99.90;;;;;;4990503;28;20420;-76
2022/01/25 10:26:41;;;;;;;63.20;43.05;;;4.20;99.90;;;;;;4970749;28;20081;-77
2022/01/25 10:29:08;;;;;;;69.40;45.08;;;4.20;99.90;;;;;;4981091;28;20043;-77
2022/01/25 10:32:00;;;;;;;71.28;46.90;;;4.20;99.90;;;;;;4994563;28;20054;-77
2022/01/25 10:34:31;;;;;;;63.45;43.20;;;4.20;99.90;;;;;;4966278;28;20053;-76
2022/01/25 10:36:59;;;;;;;70.85;45.40;;;4.20;99.90;;;;;;5005433;28;20069;-76
2022/01/25 10:39:29;;;;;;;64.50;45.92;;;4.20;99.90;;;;;;5009344;28;20067;-77
2022/01/25 10:42:07;;;;;;;69.60;45.92;;;4.20;99.90;;;;;;4988337;28;20038;-77
2022/01/25 10:44:58;;;;;;;63.90;43.42;;;4.20;99.90;;;;;;4984733;28;20132;-77
2022/01/25 10:47:42;;;;;;;64.07;43.78;;;4.20;99.90;;;;;;4977436;28;20129;-77
2022/01/25 10:50:15;;;;;;;65.43;44.15;;;4.20;99.90;;;;;;4972649;28;20038;-76
2022/01/25 10:52:42;;;;;;;67.63;44.75;;;4.20;99.90;;;;;;4994932;28;20054;-77
2022/01/25 10:55:08;;;;;;;69.43;45.35;;;4.30;99.90;;;;;;4990721;28;20042;-77
2022/01/25 10:57:34;;;;;;;72.10;46.47;;;4.20;99.90;;;;;;4973376;28;20041;-77
2022/01/25 11:00:07;;;;;;;68.53;44.83;;;4.20;99.90;;;;;;5008154;28;20042;-77
2022/01/25 11:02:33;;;;;;;70.80;44.30;;;4.20;99.90;;;;;;4990489;28;20038;-76
2022/01/25 11:05:08;;;;;;;71.90;45.35;;;4.20;99.90;;;;;;4989642;28;20569;-76
2022/01/25 11:07:39;;;;;;;68.70;45.17;;;4.20;99.90;;;;;;4962714;28;20049;-76
2022/01/25 11:10:06;;;;;;;69.18;45.20;;;4.30;99.90;;;;;;4993352;28;20984;-77
2022/01/25 11:12:37;;;;;;;66.03;44.97;;;4.30;99.90;;;;;;4971877;28;20435;-76
2022/01/25 11:15:04;;;;;;;72.45;47.15;;;4.30;99.90;;;;;;4957665;28;20073;-76
2022/01/25 11:17:32;;;;;;;71.10;44.88;;;4.30;99.90;;;;;;4972986;28;20043;-77
2022/01/25 11:19:59;;;;;;;71.25;47.78;;;4.30;99.90;;;;;;5008139;28;20507;-77
2022/01/25 11:22:26;;;;;;;70.65;45.85;;;4.30;99.90;;;;;;5006943;28;20042;-77
2022/01/25 11:24:54;;;;;;;66.70;44.45;;;4.30;99.90;;;;;;4978047;28;20051;-76
2022/01/25 11:27:22;;;;;;;69.78;45.25;;;4.30;99.90;;;;;;4989313;28;20701;-77
2022/01/25 11:29:50;;;;;;;68.00;46.75;;;4.40;99.90;;;;;;4971319;28;20072;-76
2022/01/25 11:32:20;;;;;;;72.97;46.88;;;4.30;99.90;;;;;;4978871;28;20108;-77
2022/01/25 11:34:48;;;;;;;64.25;44.30;;;4.40;99.90;;;;;;4989450;28;20068;-76
2022/01/25 11:37:14;;;;;;;74.65;47.33;;;4.40;99.90;;;;;;5009198;28;20401;-77
2022/01/25 11:39:43;;;;;;;72.85;44.05;;;4.40;99.90;;;;;;4994973;28;20038;-77
2022/01/25 11:42:12;;;;;;;69.60;45.65;;;4.40;99.90;;;;;;4996388;28;20049;-77
2022/01/25 11:44:48;;;;;;;69.80;46.80;;;4.40;99.90;;;;;;5005917;28;20054;-77
2022/01/25 11:47:16;;;;;;;71.40;46.58;;;4.40;99.90;;;;;;4977972;28;20057;-77
2022/01/25 11:49:57;;;;;;;69.25;44.72;;;4.40;99.90;;;;;;4996059;28;20535;-77
2022/01/25 11:52:24;;;;;;;71.07;45.75;;;4.40;99.90;;;;;;5010079;28;20129;-77
2022/01/25 11:55:16;;;;;;;73.85;46.72;;;4.40;99.90;;;;;;5008656;28;20038;-76
2022/01/25 11:58:07;;;;;;;70.57;44.92;;;4.40;99.90;;;;;;4973601;28;20089;-76
2022/01/25 12:00:46;;;;;;;69.40;44.08;;;4.40;99.90;;;;;;4992423;28;20534;-76
2022/01/25 12:03:29;;;;;;;67.45;44.78;;;4.40;99.90;;;;;;4990607;28;20410;-77
2022/01/25 12:06:06;;;;;;;68.80;44.08;;;4.40;99.90;;;;;;4974070;28;20181;-77
2022/01/25 12:11:35;;;;;;;62.55;42.15;;;4.30;99.90;;;;;;4998429;28;20120;-77
2022/01/25 12:14:16;;;;;;;63.15;41.63;;;4.40;99.90;;;;;;5013406;28;20042;-77
2022/01/25 12:16:55;;;;;;;68.32;43.33;;;4.40;99.90;;;;;;4998405;28;20050;-77
2022/01/25 12:19:53;;;;;;;69.88;43.65;;;4.40;99.90;;;;;;5009700;28;20042;-76
2022/01/25 12:22:25;;;;;;;69.13;44.35;;;4.40;99.90;;;;;;4980289;28;20493;-76
2022/01/25 12:25:01;;;;;;;74.88;45.35;;;4.40;99.90;;;;;;5009545;28;20056;-76
2022/01/25 12:27:59;;;;;;;71.50;44.08;;;4.40;99.90;;;;;;4996653;28;20056;-77
2022/01/25 12:30:25;;;;;;;66.10;42.88;;;4.40;99.90;;;;;;4975024;28;20058;-76
2022/01/25 12:33:08;;;;;;;67.05;42.92;;;4.40;99.90;;;;;;4998290;28;20066;-77
2022/01/25 12:35:41;;;;;;;69.97;43.70;;;4.50;99.90;;;;;;4991001;28;20050;-77
2022/01/25 12:38:14;;;;;;;70.22;43.63;;;4.50;99.90;;;;;;4976144;28;20046;-77
2022/01/25 12:40:51;;;;;;;63.22;41.28;;;4.40;99.90;;;;;;5011164;28;20053;-76
2022/01/25 12:43:29;;;;;;;66.80;42.83;;;4.50;99.90;;;;;;4980609;28;20054;-76
2022/01/25 12:46:08;;;;;;;70.20;43.20;;;4.50;99.90;;;;;;4994149;28;20034;-77
2022/01/25 12:48:39;;;;;;;65.55;42.55;;;4.50;99.90;;;;;;4998155;28;20528;-77
2022/01/25 12:51:08;;;;;;;65.82;43.17;;;4.50;99.90;;;;;;5001064;28;20057;-77
2022/01/25 12:53:38;;;;;;;65.53;42.50;;;4.40;99.90;;;;;;4998332;28;20046;-77
2022/01/25 12:56:07;;;;;;;68.78;43.75;;;4.50;99.90;;;;;;4992398;28;20038;-77
2022/01/25 12:58:34;;;;;;;64.95;41.55;;;4.50;99.90;;;;;;5013043;28;20092;-77
2022/01/25 13:01:10;;;;;;;67.63;42.58;;;4.40;99.90;;;;;;4994290;28;20117;-77
2022/01/25 13:03:41;;;;;;;64.72;40.60;;;4.30;99.90;;;;;;5012095;28;20473;-77
2022/01/25 13:06:15;;;;;;;62.92;42.15;;;4.50;99.90;;;;;;5010251;28;20492;-77
2022/01/25 13:08:47;;;;;;;63.97;40.83;;;4.40;99.90;;;;;;4991334;28;20420;-77
2022/01/25 13:11:20;;;;;;;70.20;41.33;;;4.40;99.90;;;;;;4977240;28;20051;-77
2022/01/25 13:14:33;;;;;;;66.60;41.45;;;4.40;99.90;;;;;;5009662;28;20248;-77
2022/01/25 13:17:05;;;;;;;69.18;43.00;;;4.30;99.90;;;;;;4991682;28;20911;-77
2022/01/25 13:19:38;;;;;;;63.72;40.13;;;4.40;99.90;;;;;;4977319;28;20050;-77
2022/01/25 13:22:12;;;;;;;70.20;43.08;;;4.40;99.90;;;;;;4995430;28;20037;-76
2022/01/25 13:25:32;;;;;;;65.60;40.90;;;4.40;99.90;;;;;;4995941;28;20118;-76
2022/01/25 13:27:47;;;;;;;66.43;43.28;;;4.40;99.90;;;;;;4988155;28;20038;-77
2022/01/25 13:33:00;;;;;;;69.15;41.03;;;4.40;99.90;;;;;;5009141;28;20105;-77
2022/01/25 13:35:31;;;;;;;71.47;41.95;;;4.40;99.90;;;;;;4965478;28;20100;-77
2022/01/25 13:38:18;;;;;;;67.10;42.03;;;4.40;99.90;;;;;;4996882;28;20053;-77
2022/01/25 13:41:01;;;;;;;64.10;40.30;;;4.40;99.90;;;;;;4978503;28;20678;-77
2022/01/25 13:45:58;;;;;;;66.95;40.92;;;4.40;99.90;;;;;;5001126;28;20054;-77
2022/01/25 13:48:27;;;;;;;62.78;39.60;;;4.40;99.90;;;;;;4982071;28;20042;-77
2022/01/25 13:50:59;;;;;;;68.30;41.78;;;4.40;99.90;;;;;;4978409;28;20048;-77
2022/01/25 13:53:26;;;;;;;64.72;41.17;;;4.40;99.90;;;;;;4997926;28;20038;-77
2022/01/25 13:55:55;;;;;;;57.78;39.63;;;4.50;99.90;;;;;;4994675;28;20039;-76
2022/01/25 13:58:25;;;;;;;67.85;41.67;;;4.40;99.90;;;;;;5000381;28;20057;-77
2022/01/25 14:00:53;;;;;;;69.10;41.22;;;4.40;99.90;;;;;;4995933;28;20464;-78
2022/01/25 14:03:30;;;;;;;65.88;42.00;;;4.50;99.90;;;;;;4996172;28;20865;-81
2022/01/25 14:05:56;;;;;;;71.38;42.85;;;4.40;99.90;;;;;;5000746;28;20369;-81
2022/01/25 14:08:40;;;;;;;66.15;41.05;;;4.40;99.90;;;;;;4988635;28;20041;-80
2022/01/25 14:21:38;;;;;;;65.35;42.25;;;4.50;99.90;;;;;;4995633;28;20034;-80
2022/01/25 14:25:32;;;;;;;72.90;41.17;;;4.50;99.90;;;;;;4998891;28;20038;-81
2022/01/25 14:28:01;;;;;;;70.25;41.40;;;4.40;99.90;;;;;;4994575;28;20075;-80
2022/01/25 14:30:30;;;;;;;65.88;41.13;;;4.50;99.90;;;;;;4997117;28;20059;-80
2022/01/25 14:33:00;;;;;;;68.57;41.08;;;4.50;99.90;;;;;;4981274;28;20073;-81
2022/01/25 14:35:27;;;;;;;62.65;39.65;;;4.40;99.90;;;;;;5007885;28;20042;-80
2022/01/25 14:37:53;;;;;;;67.32;40.83;;;4.50;99.90;;;;;;4992128;28;20540;-80
2022/01/25 14:40:19;;;;;;;68.35;42.03;;;4.40;99.90;;;;;;4992799;28;20113;-80